createdAt,value
2018-03-26T00:01:01.567Z,92.30
2018-03-26T00:03:30.679Z,92.40
2018-03-26T00:05:58.999Z,92.70
2018-03-26T00:08:28.031Z,92.70
2018-03-26T00:10:56.293Z,92.70
2018-03-26T00:13:24.557Z,92.80
2018-03-26T00:15:53.732Z,92.90
2018-03-26T00:18:23.228Z,92.90
2018-03-26T00:20:52.253Z,93.20
2018-03-26T00:23:21.241Z,93.00
2018-03-26T00:25:49.500Z,93.20
2018-03-26T00:28:18.532Z,93.30
2018-03-26T00:30:46.801Z,93.20
2018-03-26T00:33:15.073Z,93.40
2018-03-26T00:35:43.362Z,93.10
2018-03-26T00:38:11.635Z,93.10
2018-03-26T00:40:39.912Z,93.30
2018-03-26T00:43:08.171Z,93.40
2018-03-26T00:45:36.442Z,93.50
2018-03-26T00:48:04.712Z,93.70
2018-03-26T00:50:33.747Z,93.50
2018-03-26T00:53:02.019Z,93.50
2018-03-26T00:55:30.312Z,93.50
2018-03-26T00:57:58.584Z,93.50
2018-03-26T01:00:26.845Z,93.70
2018-03-26T01:02:55.112Z,93.60
2018-03-26T01:05:23.401Z,93.50
2018-03-26T01:07:53.037Z,93.60
2018-03-26T01:10:21.313Z,93.70
2018-03-26T01:12:49.571Z,93.70
2018-03-26T01:15:17.829Z,94.20
2018-03-26T01:17:46.095Z,94.00
2018-03-26T01:20:14.365Z,93.90
2018-03-26T01:22:42.664Z,94.10
2018-03-26T01:25:10.939Z,93.90
2018-03-26T01:27:39.208Z,94.30
2018-03-26T01:30:08.841Z,93.90
2018-03-26T01:32:37.113Z,93.90
2018-03-26T01:35:05.371Z,93.70
2018-03-26T01:37:33.643Z,93.80
2018-03-26T01:40:01.906Z,93.70
2018-03-26T01:42:30.190Z,93.90
2018-03-26T01:44:59.282Z,93.60
2018-03-26T01:47:27.540Z,93.90
2018-03-26T01:49:55.809Z,93.90
2018-03-26T01:52:24.841Z,93.90
2018-03-26T01:54:53.110Z,93.90
2018-03-26T01:57:21.458Z,93.90
2018-03-26T01:59:50.476Z,93.90
2018-03-26T02:02:18.734Z,93.80
2018-03-26T02:04:47.073Z,93.60
2018-03-26T02:07:16.056Z,93.80
2018-03-26T02:09:44.320Z,93.80
2018-03-26T02:12:13.483Z,93.70
2018-03-26T02:14:41.744Z,93.50
2018-03-26T02:17:10.790Z,93.40
2018-03-26T02:19:39.054Z,93.40
2018-03-26T02:22:07.311Z,93.80
2018-03-26T02:24:35.582Z,93.60
2018-03-26T02:27:03.847Z,93.70
2018-03-26T02:29:32.122Z,93.60
2018-03-26T02:32:01.154Z,93.70
2018-03-26T02:34:29.430Z,93.70
2018-03-26T02:36:57.756Z,93.80
2018-03-26T02:39:26.051Z,93.90
2018-03-26T02:41:55.216Z,94.00
2018-03-26T02:44:23.484Z,94.00
2018-03-26T02:46:52.532Z,93.70
2018-03-26T02:49:21.645Z,93.70
2018-03-26T02:51:49.957Z,93.80
2018-03-26T02:54:18.223Z,93.80
2018-03-26T02:56:46.491Z,93.80
2018-03-26T02:59:14.766Z,93.90
2018-03-26T03:01:43.027Z,93.70
2018-03-26T03:04:11.282Z,93.80
2018-03-26T03:06:39.563Z,93.70
2018-03-26T03:09:07.838Z,93.50
2018-03-26T03:11:36.099Z,93.40
2018-03-26T03:14:05.132Z,93.60
2018-03-26T03:16:33.399Z,93.60
2018-03-26T03:19:01.672Z,93.40
2018-03-26T03:21:29.930Z,93.40
2018-03-26T03:23:58.188Z,93.30
2018-03-26T03:26:28.083Z,93.40
2018-03-26T03:28:57.145Z,93.40
2018-03-26T03:31:25.424Z,93.40
2018-03-26T03:33:53.706Z,93.10
2018-03-26T03:36:21.969Z,93.10
2018-03-26T03:38:50.236Z,93.00
2018-03-26T03:41:18.502Z,93.00
2018-03-26T03:43:46.784Z,92.80
2018-03-26T03:46:15.071Z,92.80
2018-03-26T03:48:43.370Z,93.10
2018-03-26T03:51:11.645Z,92.90
2018-03-26T03:53:39.926Z,92.80
2018-03-26T03:56:09.219Z,92.80
2018-03-26T03:58:38.465Z,93.10
2018-03-26T04:01:07.515Z,93.10
2018-03-26T04:03:35.792Z,93.10
2018-03-26T04:06:04.099Z,93.20
2018-03-26T04:08:32.365Z,93.40
2018-03-26T04:11:01.308Z,93.30
2018-03-26T04:13:29.564Z,93.10
2018-03-26T04:15:57.840Z,93.50
2018-03-26T04:18:26.135Z,93.20
2018-03-26T04:20:54.396Z,93.10
2018-03-26T04:23:22.662Z,93.30
2018-03-26T04:25:51.744Z,93.40
2018-03-26T04:28:20.751Z,93.10
2018-03-26T04:30:49.803Z,93.10
2018-03-26T04:33:18.073Z,93.10
2018-03-26T04:35:46.340Z,93.20
2018-03-26T04:38:15.146Z,93.60
2018-03-26T04:40:43.402Z,93.70
2018-03-26T04:43:11.674Z,93.70
2018-03-26T04:45:39.951Z,93.70
2018-03-26T04:48:08.224Z,93.50
2018-03-26T04:50:36.517Z,93.60
2018-03-26T04:53:04.782Z,93.30
2018-03-26T04:55:33.060Z,93.50
2018-03-26T04:58:01.344Z,93.60
2018-03-26T05:00:29.657Z,93.60
2018-03-26T05:02:58.691Z,93.40
2018-03-26T05:05:26.987Z,93.60
2018-03-26T05:07:55.251Z,93.70
2018-03-26T05:10:24.110Z,93.70
2018-03-26T05:12:53.887Z,93.50
2018-03-26T05:15:22.227Z,93.50
2018-03-26T05:17:50.522Z,93.50
2018-03-26T05:20:18.788Z,93.30
2018-03-26T05:22:49.960Z,93.20
2018-03-26T05:25:18.260Z,93.30
2018-03-26T05:27:49.178Z,93.60
2018-03-26T05:30:20.415Z,93.30
2018-03-26T05:32:48.718Z,93.30
2018-03-26T05:35:16.978Z,93.50
2018-03-26T05:37:45.260Z,93.40
2018-03-26T05:40:13.548Z,93.60
2018-03-26T05:42:42.601Z,93.80
2018-03-26T05:45:11.897Z,93.70
2018-03-26T05:47:40.792Z,93.70
2018-03-26T05:50:14.164Z,93.80
2018-03-26T05:52:43.503Z,93.30
2018-03-26T05:55:12.701Z,93.00
2018-03-26T05:57:41.499Z,93.30
2018-03-26T06:00:11.029Z,93.30
2018-03-26T06:02:39.328Z,93.40
2018-03-26T06:05:07.585Z,93.40
2018-03-26T06:07:36.733Z,93.20
2018-03-26T06:10:05.010Z,93.10
2018-03-26T06:12:33.278Z,93.00
2018-03-26T06:15:02.524Z,92.90
2018-03-26T06:17:31.110Z,93.10
2018-03-26T06:20:00.274Z,93.10
2018-03-26T06:22:29.348Z,93.20
2018-03-26T06:24:58.593Z,93.40
2018-03-26T06:27:27.664Z,93.10
2018-03-26T06:29:56.628Z,93.10
2018-03-26T06:32:26.992Z,93.10
2018-03-26T06:34:57.985Z,93.30
2018-03-26T06:37:34.544Z,93.30
2018-03-26T06:40:05.122Z,93.10
2018-03-26T06:42:34.540Z,93.10
2018-03-26T06:45:03.387Z,92.90
2018-03-26T06:47:33.155Z,92.80
2018-03-26T06:50:03.368Z,92.80
2018-03-26T06:52:32.446Z,92.80
2018-03-26T06:55:01.568Z,92.90
2018-03-26T06:57:31.823Z,93.20
2018-03-26T07:00:00.099Z,93.20
2018-03-26T07:02:30.196Z,93.00
2018-03-26T07:04:59.225Z,93.30
2018-03-26T07:07:27.521Z,93.30
2018-03-26T07:09:55.806Z,93.50
2018-03-26T07:12:24.157Z,93.40
2018-03-26T07:14:52.412Z,93.60
2018-03-26T07:17:21.297Z,93.50
2018-03-26T07:19:49.582Z,93.40
2018-03-26T07:22:17.876Z,93.20
2018-03-26T07:24:46.146Z,93.10
2018-03-26T07:27:14.440Z,93.10
2018-03-26T07:29:42.719Z,93.20
2018-03-26T07:32:11.820Z,93.30
2018-03-26T07:34:40.189Z,93.10
2018-03-26T07:37:09.247Z,93.10
2018-03-26T07:39:37.561Z,93.00
2018-03-26T07:42:05.841Z,93.10
2018-03-26T07:44:34.185Z,93.00
2018-03-26T07:47:03.241Z,93.10
2018-03-26T07:49:32.289Z,93.30
2018-03-26T07:52:00.589Z,93.00
2018-03-26T07:54:28.903Z,92.90
2018-03-26T07:56:57.953Z,93.20
2018-03-26T07:59:26.242Z,93.20
2018-03-26T08:01:55.036Z,93.30
2018-03-26T08:04:23.297Z,93.50
2018-03-26T08:06:51.569Z,93.50
2018-03-26T08:09:21.396Z,93.50
2018-03-26T08:11:49.668Z,93.90
2018-03-26T08:14:17.975Z,94.20
2018-03-26T08:16:47.912Z,94.60
2018-03-26T08:19:17.441Z,94.70
2018-03-26T08:21:45.741Z,94.80
2018-03-26T08:24:14.015Z,94.70
2018-03-26T08:26:42.290Z,94.90
2018-03-26T08:29:10.604Z,95.10
2018-03-26T08:31:39.666Z,95.60
2018-03-26T08:34:07.990Z,95.60
2018-03-26T08:36:36.307Z,95.60
2018-03-26T08:39:04.606Z,95.80
2018-03-26T08:41:34.373Z,96.00
2018-03-26T08:44:02.686Z,96.00
2018-03-26T08:46:30.960Z,96.00
2018-03-26T08:48:59.252Z,95.90
2018-03-26T08:51:29.103Z,95.80
2018-03-26T08:53:57.408Z,95.80
2018-03-26T08:56:25.657Z,95.50
2018-03-26T08:58:53.949Z,95.50
2018-03-26T09:01:22.237Z,95.50
2018-03-26T09:03:50.494Z,95.00
2018-03-26T09:06:18.751Z,95.00
2018-03-26T09:08:47.788Z,94.70
2018-03-26T09:11:16.069Z,94.70
2018-03-26T09:13:44.335Z,94.80
2018-03-26T09:16:12.620Z,94.50
2018-03-26T09:18:40.878Z,93.90
2018-03-26T09:21:09.159Z,93.30
2018-03-26T09:23:37.518Z,93.20
2018-03-26T09:26:05.895Z,93.20
2018-03-26T09:28:34.132Z,92.60
2018-03-26T09:31:03.159Z,92.10
2018-03-26T09:33:31.468Z,92.10
2018-03-26T09:35:59.731Z,92.10
2018-03-26T09:38:28.091Z,91.90
2018-03-26T09:40:56.349Z,91.70
2018-03-26T09:43:24.625Z,91.50
2018-03-26T09:45:53.639Z,91.10
2018-03-26T09:48:21.897Z,91.00
2018-03-26T09:50:50.968Z,91.10
2018-03-26T09:53:19.303Z,91.00
2018-03-26T09:55:47.551Z,90.90
2018-03-26T09:58:15.798Z,90.60
2018-03-26T10:00:49.095Z,90.60
2018-03-26T10:03:17.372Z,90.70
2018-03-26T10:05:45.690Z,89.80
2018-03-26T10:08:13.967Z,89.70
2018-03-26T10:10:42.244Z,89.10
2018-03-26T10:13:10.659Z,89.00
2018-03-26T10:15:38.932Z,88.10
2018-03-26T10:18:07.216Z,88.40
2018-03-26T10:20:35.520Z,87.00
2018-03-26T10:23:03.787Z,83.60
2018-03-26T10:25:32.975Z,83.10
2018-03-26T10:28:01.343Z,81.10
2018-03-26T10:30:29.620Z,82.70
2018-03-26T10:32:57.892Z,83.60
2018-03-26T10:35:26.166Z,80.20
2018-03-26T10:37:54.432Z,80.50
2018-03-26T10:40:22.839Z,80.60
2018-03-26T10:42:51.131Z,79.40
2018-03-26T10:45:20.197Z,77.00
2018-03-26T10:47:48.458Z,76.70
2018-03-26T10:50:16.744Z,71.20
2018-03-26T10:52:45.121Z,70.00
2018-03-26T10:55:13.524Z,69.40
2018-03-26T10:57:41.821Z,68.70
2018-03-26T11:00:11.083Z,70.80
2018-03-26T11:02:39.355Z,70.80
2018-03-26T11:05:07.619Z,73.00
2018-03-26T11:07:36.009Z,73.00
2018-03-26T11:10:04.286Z,72.90
2018-03-26T11:12:32.556Z,71.50
2018-03-26T11:15:00.892Z,73.10
2018-03-26T11:17:29.188Z,74.20
2018-03-26T11:19:57.491Z,73.60
2018-03-26T11:22:25.739Z,72.20
2018-03-26T11:24:54.078Z,72.00
2018-03-26T11:27:23.263Z,73.80
2018-03-26T11:29:51.619Z,73.00
2018-03-26T11:32:20.039Z,70.70
2018-03-26T11:34:49.090Z,68.50
2018-03-26T11:37:17.366Z,68.40
2018-03-26T11:39:45.704Z,69.70
2018-03-26T11:42:14.734Z,65.60
2018-03-26T11:44:43.026Z,65.30
2018-03-26T11:47:11.308Z,64.80
2018-03-26T11:49:39.649Z,66.00
2018-03-26T11:52:08.657Z,70.50
2018-03-26T11:54:36.949Z,70.30
2018-03-26T11:57:05.219Z,65.80
2018-03-26T11:59:33.564Z,66.50
2018-03-26T12:02:02.650Z,65.20
2018-03-26T12:04:30.983Z,65.10
2018-03-26T12:06:59.260Z,63.60
2018-03-26T12:09:27.751Z,65.10
2018-03-26T12:11:56.030Z,65.80
2018-03-26T12:14:24.325Z,63.50
2018-03-26T12:16:53.472Z,65.60
2018-03-26T12:19:21.880Z,65.60
2018-03-26T12:21:50.132Z,64.90
2018-03-26T12:27:26.219Z,65.10
2018-03-26T12:30:07.584Z,65.90
2018-03-26T12:32:35.848Z,65.60
2018-03-26T12:35:16.831Z,65.90
2018-03-26T12:37:45.102Z,65.30
2018-03-26T12:40:25.962Z,64.40
2018-03-26T12:42:54.286Z,64.40
2018-03-26T12:45:34.791Z,65.00
2018-03-26T12:48:03.127Z,65.00
2018-03-26T12:50:44.271Z,66.60
2018-03-26T12:53:13.495Z,65.10
2018-03-26T12:55:41.765Z,65.60
2018-03-26T12:58:22.009Z,68.50
2018-03-26T13:01:02.502Z,68.90
2018-03-26T13:03:30.800Z,69.10
2018-03-26T13:05:59.960Z,69.40
2018-03-26T13:08:28.245Z,69.30
2018-03-26T13:10:56.516Z,68.30
2018-03-26T13:13:24.830Z,68.20
2018-03-26T13:15:53.898Z,67.80
2018-03-26T13:18:22.931Z,68.30
2018-03-26T13:20:51.230Z,68.30
2018-03-26T13:23:19.501Z,67.60
2018-03-26T13:25:47.784Z,66.50
2018-03-26T13:28:16.908Z,67.00
2018-03-26T13:30:45.154Z,69.30
2018-03-26T13:33:13.446Z,72.10
2018-03-26T13:35:41.750Z,70.30
2018-03-26T13:38:10.036Z,69.40
2018-03-26T13:40:38.320Z,68.50
2018-03-26T13:43:07.375Z,70.00
2018-03-26T13:45:35.740Z,69.90
2018-03-26T13:48:04.024Z,69.90
2018-03-26T13:50:32.329Z,69.10
2018-03-26T13:53:00.612Z,67.20
2018-03-26T13:55:28.921Z,66.90
2018-03-26T13:57:57.178Z,67.00
2018-03-26T14:00:26.231Z,64.90
2018-03-26T14:02:54.479Z,64.80
2018-03-26T14:05:22.770Z,63.20
2018-03-26T14:07:51.098Z,63.40
2018-03-26T14:10:32.160Z,64.10
2018-03-26T14:13:12.422Z,64.00
2018-03-26T14:15:53.674Z,64.30
2018-03-26T14:18:21.946Z,64.20
2018-03-26T14:20:50.450Z,63.40
2018-03-26T14:23:18.773Z,64.90
2018-03-26T14:25:47.173Z,65.10
2018-03-26T14:28:15.464Z,63.40
2018-03-26T14:30:43.839Z,62.50
2018-03-26T14:33:12.145Z,64.30
2018-03-26T14:35:40.441Z,65.20
2018-03-26T14:38:09.483Z,62.80
2018-03-26T14:40:37.755Z,62.70
2018-03-26T14:43:06.143Z,64.10
2018-03-26T14:45:34.442Z,64.10
2018-03-26T14:48:03.496Z,61.80
2018-03-26T14:50:31.787Z,61.80
2018-03-26T14:53:00.065Z,58.70
2018-03-26T14:55:28.323Z,56.10
2018-03-26T14:57:56.578Z,56.40
2018-03-26T15:00:24.893Z,55.90
2018-03-26T15:02:53.175Z,55.90
2018-03-26T15:05:21.470Z,56.70
2018-03-26T15:07:49.771Z,56.50
2018-03-26T15:10:18.831Z,56.20
2018-03-26T15:12:47.241Z,56.20
2018-03-26T15:15:16.254Z,56.20
2018-03-26T15:17:45.291Z,55.70
2018-03-26T15:20:13.531Z,55.60
2018-03-26T15:22:42.781Z,56.30
2018-03-26T15:25:11.241Z,56.20
2018-03-26T15:27:39.498Z,55.90
2018-03-26T15:30:07.789Z,56.20
2018-03-26T15:32:36.069Z,56.30
2018-03-26T15:35:04.367Z,56.30
2018-03-26T15:37:32.732Z,56.40
2018-03-26T15:40:01.071Z,56.80
2018-03-26T15:42:29.359Z,56.90
2018-03-26T15:44:57.603Z,57.30
2018-03-26T15:47:25.873Z,68.40
2018-03-26T15:49:55.012Z,77.90
2018-03-26T15:52:23.296Z,77.80
2018-03-26T15:54:51.557Z,78.50
2018-03-26T15:57:19.821Z,78.80
2018-03-26T15:59:48.088Z,79.30
2018-03-26T16:04:52.687Z,81.80
2018-03-26T16:07:20.976Z,81.70
2018-03-26T16:09:49.283Z,81.60
2018-03-26T16:12:18.929Z,81.40
2018-03-26T16:14:47.177Z,81.40
2018-03-26T16:17:15.438Z,81.40
2018-03-26T16:19:43.710Z,80.70
2018-03-26T16:22:12.756Z,80.00
2018-03-26T16:24:41.022Z,79.90
2018-03-26T16:27:09.844Z,80.70
2018-03-26T16:29:38.214Z,81.30
2018-03-26T16:32:06.451Z,79.60
2018-03-26T16:34:34.705Z,80.10
2018-03-26T16:37:03.749Z,77.00
2018-03-26T16:39:31.986Z,77.00
2018-03-26T16:42:12.095Z,73.30
2018-03-26T16:44:40.570Z,73.30
2018-03-26T16:47:08.888Z,73.10
2018-03-26T16:49:37.900Z,80.00
2018-03-26T16:52:06.174Z,80.00
2018-03-26T16:54:34.443Z,78.50
2018-03-26T16:57:02.700Z,79.10
2018-03-26T16:59:31.869Z,79.60
2018-03-26T17:02:00.139Z,79.50
2018-03-26T17:04:28.409Z,75.20
2018-03-26T17:06:56.651Z,67.80
2018-03-26T17:09:24.906Z,68.40
2018-03-26T17:11:53.904Z,63.40
2018-03-26T17:14:22.150Z,63.30
2018-03-26T17:16:50.395Z,63.10
2018-03-26T17:19:18.668Z,61.30
2018-03-26T17:21:46.929Z,61.60
2018-03-26T17:24:15.159Z,60.80
2018-03-26T17:26:44.169Z,59.90
2018-03-26T17:29:12.434Z,59.30
2018-03-26T17:31:40.698Z,59.30
2018-03-26T17:34:08.959Z,59.40
2018-03-26T17:36:37.257Z,60.30
2018-03-26T17:39:06.271Z,59.80
2018-03-26T17:41:34.524Z,59.30
2018-03-26T17:44:02.762Z,59.60
2018-03-26T17:46:31.563Z,60.20
2018-03-26T17:48:59.821Z,60.70
2018-03-26T17:51:28.078Z,60.40
2018-03-26T17:53:56.331Z,61.30
2018-03-26T17:56:25.390Z,61.40
2018-03-26T17:58:53.830Z,61.40
2018-03-26T18:01:22.105Z,61.20
2018-03-26T18:03:50.405Z,62.20
2018-03-26T18:06:18.636Z,62.30
2018-03-26T18:08:47.674Z,62.00
2018-03-26T18:11:15.973Z,62.00
2018-03-26T18:13:44.214Z,62.80
2018-03-26T18:16:12.461Z,62.30
2018-03-26T18:18:40.781Z,63.20
2018-03-26T18:21:09.027Z,63.40
2018-03-26T18:23:37.290Z,63.60
2018-03-26T18:26:06.319Z,63.60
2018-03-26T18:28:34.601Z,63.60
2018-03-26T18:31:02.842Z,65.40
2018-03-26T18:33:31.112Z,64.70
2018-03-26T18:36:00.513Z,67.00
2018-03-26T18:38:29.534Z,65.60
2018-03-26T18:40:57.792Z,65.50
2018-03-26T18:43:26.057Z,66.70
2018-03-26T18:45:54.394Z,67.40
2018-03-26T18:48:22.653Z,67.90
2018-03-26T18:50:50.894Z,67.80
2018-03-26T18:53:19.143Z,69.30
2018-03-26T18:55:47.384Z,69.90
2018-03-26T18:58:15.627Z,69.80
2018-03-26T19:00:43.943Z,69.50
2018-03-26T19:03:12.180Z,67.60
2018-03-26T19:05:41.211Z,67.20
2018-03-26T19:08:09.446Z,67.10
2018-03-26T19:10:37.694Z,66.40
2018-03-26T19:13:06.691Z,68.60
2018-03-26T19:15:35.707Z,69.10
2018-03-26T19:18:03.941Z,69.10
2018-03-26T19:20:32.197Z,69.00
2018-03-26T19:23:00.470Z,70.30
2018-03-26T19:25:28.698Z,71.40
2018-03-26T19:27:57.704Z,72.90
2018-03-26T19:30:26.812Z,72.80
2018-03-26T19:32:55.044Z,74.40
2018-03-26T19:35:24.058Z,77.60
2018-03-26T19:37:52.302Z,77.60
2018-03-26T19:40:20.544Z,77.70
2018-03-26T19:42:48.808Z,77.10
2018-03-26T19:45:17.053Z,77.90
2018-03-26T19:47:46.118Z,78.80
2018-03-26T19:50:14.368Z,78.80
2018-03-26T19:52:42.703Z,79.20
2018-03-26T19:55:11.769Z,79.10
2018-03-26T19:57:40.019Z,79.10
2018-03-26T20:00:08.241Z,77.10
2018-03-26T20:02:37.276Z,79.10
2018-03-26T20:05:05.532Z,79.60
2018-03-26T20:07:33.795Z,82.80
2018-03-26T20:10:02.819Z,84.80
2018-03-26T20:12:31.076Z,84.80
2018-03-26T20:14:59.338Z,85.40
2018-03-26T20:17:28.357Z,86.80
2018-03-26T20:19:56.632Z,86.70
2018-03-26T20:22:24.888Z,87.10
2018-03-26T20:24:54.028Z,85.30
2018-03-26T20:27:22.267Z,85.20
2018-03-26T20:29:50.476Z,84.70
2018-03-26T20:32:18.688Z,85.60
2018-03-26T20:34:47.652Z,86.20
2018-03-26T20:37:15.948Z,86.10
2018-03-26T20:39:44.976Z,88.40
2018-03-26T20:42:13.239Z,88.40
2018-03-26T20:44:42.286Z,89.50
2018-03-26T20:47:10.666Z,89.60
2018-03-26T20:49:38.910Z,90.20
2018-03-26T20:52:07.171Z,90.20
2018-03-26T20:54:36.200Z,90.50
2018-03-26T20:57:05.524Z,90.40
2018-03-26T20:59:33.807Z,90.60
2018-03-26T21:02:02.071Z,90.70
2018-03-26T21:04:30.336Z,90.80
2018-03-26T21:06:58.641Z,90.90
2018-03-26T21:09:26.878Z,90.80
2018-03-26T21:11:55.139Z,90.80
2018-03-26T21:14:23.403Z,90.80
2018-03-26T21:16:51.655Z,90.60
2018-03-26T21:19:19.917Z,90.70
2018-03-26T21:21:48.964Z,91.30
2018-03-26T21:24:17.212Z,91.20
2018-03-26T21:26:46.238Z,91.80
2018-03-26T21:29:14.488Z,91.70
2018-03-26T21:31:43.504Z,91.90
2018-03-26T21:34:12.536Z,92.10
2018-03-26T21:36:40.810Z,92.10
2018-03-26T21:39:09.688Z,92.20
2018-03-26T21:41:37.983Z,92.40
2018-03-26T21:44:06.253Z,92.60
2018-03-26T21:46:34.504Z,92.40
2018-03-26T21:49:02.759Z,92.30
2018-03-26T21:51:31.017Z,92.40
2018-03-26T21:54:00.173Z,92.50
2018-03-26T21:56:28.430Z,92.50
2018-03-26T21:58:56.693Z,92.60
2018-03-26T22:01:24.998Z,92.60
2018-03-26T22:03:53.256Z,92.80
2018-03-26T22:06:21.553Z,92.90
2018-03-26T22:08:49.821Z,92.80
2018-03-26T22:11:18.081Z,92.80
2018-03-26T22:13:46.344Z,92.80
2018-03-26T22:16:14.596Z,92.90
2018-03-26T22:18:43.632Z,92.80
2018-03-26T22:21:11.899Z,92.70
2018-03-26T22:23:40.166Z,92.70
2018-03-26T22:26:08.426Z,93.00
2018-03-26T22:28:37.450Z,93.00
2018-03-26T22:31:05.742Z,93.00
2018-03-26T22:33:34.004Z,92.90
2018-03-26T22:36:02.266Z,93.00
2018-03-26T22:38:30.528Z,93.10
2018-03-26T22:40:58.798Z,93.20
2018-03-26T22:43:27.812Z,93.30
2018-03-26T22:45:56.068Z,93.30
2018-03-26T22:48:25.088Z,93.20
2018-03-26T22:50:53.336Z,93.20
2018-03-26T22:53:21.603Z,93.40
2018-03-26T22:55:50.642Z,93.70
2018-03-26T22:58:18.909Z,93.70
2018-03-26T23:00:47.180Z,93.70
2018-03-26T23:03:15.438Z,93.90
2018-03-26T23:05:43.702Z,94.10
2018-03-26T23:08:12.720Z,93.90
2018-03-26T23:10:40.982Z,93.80
2018-03-26T23:13:10.003Z,94.00
2018-03-26T23:15:38.259Z,93.90
2018-03-26T23:18:06.537Z,94.00
2018-03-26T23:20:35.362Z,94.10
2018-03-26T23:23:03.609Z,93.80
2018-03-26T23:25:31.861Z,93.80
2018-03-26T23:28:00.891Z,93.80
2018-03-26T23:30:29.175Z,93.80
2018-03-26T23:32:57.442Z,93.70
2018-03-26T23:35:25.719Z,93.80
2018-03-26T23:37:53.985Z,93.80
2018-03-26T23:40:22.248Z,93.80
2018-03-26T23:42:50.504Z,93.70
2018-03-26T23:45:18.766Z,93.90
2018-03-26T23:47:47.037Z,94.20
2018-03-26T23:50:15.334Z,93.90
2018-03-26T23:52:44.401Z,93.70
2018-03-26T23:55:12.659Z,93.70
2018-03-26T23:57:40.921Z,93.60
